Taloyoak Airport
CYYH : now visible

Airfield :











YOU CAN JOIN US ON...

 
LOGIN :

Register | Disclaimer

   EN    FR    IT 

 









Legend :    VFR   Marginal VFR   IFR   Intensive IFR   Very Intensive IFR
Visi :
Ceiling :
>= 8 km
>= 3000ft
5 to 8 km
1000 to 3000 ft
1500m to 5 km
500 to 1000 ft
800 to 1500m
200 to 500 ft
< 800m
< 200 ft
Symbols :   Thunderstorms  Fog  Heavy snow  Heavy precipitations  Wind > 20 kt






- Airport Elevation : 92 ft
- IATA code : YYH


CYYH - Taloyoak

CURRENT METAR :
  • 170006Z 27012G17KT 10SM -DZ FEW004 OVC007 01/M01 A2981 RMK ST2ST6 SLP100

EXPIRED METARs :
  • 162338Z 25013KT 10SM FEW002 OVC008 01/M00 A2981 RMK ST1ST7 CIG RAG SLP100
  • 162300Z 28010KT 15SM FEW003 BKN010 02/M01 A2981 RMK ST1SC7 ST TR SUN DIMLY VISBL SLP100
  • 162200Z 27011KT 15SM FEW006 BKN011 03/00 A2980 RMK ST1SC7 ST TR SUN DIMLY VISBL SLP095
  • 162122Z 26012KT 15SM FEW004 BKN012 03/00 A2979 RMK ST1SC7 ST TR FG DIST SE-2 SLP092
  • 162100Z 29013KT 15SM FEW005 FEW007 FEW013 FEW220 03/00 A2979 RMK ST1CF1SC1CI1 ST TR CF TR CI TR FG DIST SE-S SLP091
  • 162000Z 28014KT 15SM FEW005 FEW008 FEW012 FEW036 FEW210 03/01 A2979 RMK ST1ST1SC1SC1CI1 ST TR ST TR SC TR SC TR CI TR SLP092

TAF AMD TAF CYYH
Valid from the 17 at 00:00 until the 17 at 12:00 UTC


170016Z 1700/1712 27012KT P6SM SCT006 OVC012
TEMPO 1700/1712 2SM -RASN BR BKN006
PROB40 1705/1712 1SM BR OVC004 RMK NXT FCST BY 170600Z
CZEG FIR / North America



MET'MAP, your aeronautical weather chart ! - Copyright ORBIFLY December 2007 - Disclaimer

ORBIFLY MET'MAP TEAM :

Programming & Development : Alexandra Zaïnal
Original concept : Baudouin d'Aumeries
Technical & hardware support : Manuel Goepfert
Assistance : Marc-Olivier Méhu




SOURCES & CREDITS :

   NOAA       Earth
Advisory